createdAt,value
2017-05-20T00:00:46.030Z,24.02
2017-05-20T00:01:55.323Z,24.05
2017-05-20T00:03:04.930Z,24
2017-05-20T00:04:14.544Z,24.08
2017-05-20T00:05:24.149Z,23.98
2017-05-20T00:06:34.060Z,24.05
2017-05-20T00:07:43.971Z,23.97
2017-05-20T00:08:53.884Z,24.08
2017-05-20T00:10:03.795Z,24.03
2017-05-20T00:11:13.454Z,23.93
2017-05-20T00:12:23.473Z,24.03
2017-05-20T00:13:33.701Z,23.95
2017-05-20T00:14:43.658Z,24
2017-05-20T00:15:52.969Z,23.95
2017-05-20T00:17:02.876Z,24.09
2017-05-20T00:18:12.793Z,23.94
2017-05-20T00:19:22.137Z,24.02
2017-05-20T00:20:31.742Z,23.98
2017-05-20T00:21:41.954Z,24.05
2017-05-20T00:22:52.181Z,23.98
2017-05-20T00:24:01.792Z,23.94
2017-05-20T00:25:11.400Z,24.05
2017-05-20T00:26:20.695Z,23.9
2017-05-20T00:27:30.305Z,23.95
2017-05-20T00:28:39.918Z,23.95
2017-05-20T00:29:49.849Z,23.91
2017-05-20T00:30:59.762Z,23.97
2017-05-20T00:32:09.361Z,23.98
2017-05-20T00:33:18.973Z,24
2017-05-20T00:34:29.192Z,23.98
2017-05-20T00:35:39.114Z,23.95
2017-05-20T00:36:49.335Z,23.91
2017-05-20T00:37:59.242Z,23.97
2017-05-20T00:39:08.855Z,23.98
2017-05-20T00:40:18.772Z,23.91
2017-05-20T00:41:28.700Z,23.95
2017-05-20T00:42:38.928Z,23.95
2017-05-20T00:43:49.150Z,23.88
2017-05-20T00:44:59.366Z,23.94
2017-05-20T00:46:08.658Z,23.91
2017-05-20T00:47:18.268Z,23.9
2017-05-20T00:48:28.488Z,23.94
2017-05-20T00:49:38.395Z,24
2017-05-20T00:50:48.322Z,23.88
2017-05-20T00:51:58.535Z,23.88
2017-05-20T00:53:08.438Z,23.9
2017-05-20T00:54:18.669Z,23.9
2017-05-20T00:55:28.597Z,23.88
2017-05-20T00:56:38.816Z,23.95
2017-05-20T00:57:48.420Z,23.88
2017-05-20T00:58:57.736Z,23.94
2017-05-20T01:00:07.343Z,23.94
2017-05-20T01:01:16.948Z,23.9
2017-05-20T01:02:26.884Z,23.94
2017-05-20T01:03:36.805Z,23.85
2017-05-20T01:04:46.113Z,23.98
2017-05-20T01:05:55.703Z,23.98
2017-05-20T01:07:05.922Z,23.9
2017-05-20T01:08:15.844Z,23.95
2017-05-20T01:09:26.094Z,23.91
2017-05-20T01:10:36.316Z,23.91
2017-05-20T01:11:46.225Z,23.88
2017-05-20T01:12:55.830Z,23.91
2017-05-20T01:14:05.122Z,23.93
2017-05-20T01:15:15.015Z,23.9
2017-05-20T01:16:24.938Z,23.9
2017-05-20T01:17:35.215Z,23.88
2017-05-20T01:18:45.124Z,23.93
2017-05-20T01:19:55.408Z,24
2017-05-20T01:21:05.015Z,23.88
2017-05-20T01:22:14.609Z,23.93
2017-05-20T01:23:24.523Z,23.87
2017-05-20T01:24:34.139Z,23.9
2017-05-20T01:25:44.350Z,23.88
2017-05-20T01:26:53.949Z,24
2017-05-20T01:28:02.940Z,23.84
2017-05-20T01:29:12.543Z,23.84
2017-05-20T01:30:22.826Z,23.88
2017-05-20T01:31:33.045Z,23.91
2017-05-20T01:32:42.962Z,23.9
2017-05-20T01:33:52.876Z,23.84
2017-05-20T01:35:02.179Z,23.84
2017-05-20T01:36:11.800Z,23.85
2017-05-20T01:37:21.710Z,23.9
2017-05-20T01:38:31.922Z,23.88
2017-05-20T01:39:41.215Z,23.85
2017-05-20T01:40:50.517Z,23.91
2017-05-20T01:42:00.488Z,23.85
2017-05-20T01:43:10.725Z,23.8
2017-05-20T01:44:20.631Z,23.83
2017-05-20T01:45:30.532Z,23.8
2017-05-20T01:46:40.140Z,23.79
2017-05-20T01:47:50.370Z,23.88
2017-05-20T01:49:00.281Z,23.88
2017-05-20T01:50:10.192Z,23.85
2017-05-20T01:51:19.516Z,23.95
2017-05-20T01:52:29.427Z,23.87
2017-05-20T01:53:39.337Z,23.91
2017-05-20T01:54:49.268Z,23.88
2017-05-20T01:55:59.483Z,23.88
2017-05-20T01:57:09.096Z,23.87
2017-05-20T01:58:19.301Z,23.84
2017-05-20T01:59:28.906Z,23.88
2017-05-20T02:00:38.811Z,23.85
2017-05-20T02:01:48.418Z,23.88
2017-05-20T02:02:58.645Z,23.8
2017-05-20T02:04:08.239Z,23.85
2017-05-20T02:05:18.144Z,23.84
2017-05-20T02:06:27.761Z,23.8
2017-05-20T02:07:37.997Z,23.85
2017-05-20T02:08:48.214Z,23.85
2017-05-20T02:09:58.122Z,23.91
2017-05-20T02:11:07.141Z,23.85
2017-05-20T02:12:17.046Z,23.8
2017-05-20T02:13:26.646Z,23.87
2017-05-20T02:14:36.594Z,23.79
2017-05-20T02:15:46.192Z,23.8
2017-05-20T02:16:56.416Z,23.8
2017-05-20T02:18:06.331Z,23.87
2017-05-20T02:19:15.687Z,23.88
2017-05-20T02:20:25.306Z,23.85
2017-05-20T02:21:35.238Z,23.88
2017-05-20T02:22:45.485Z,23.83
2017-05-20T02:23:54.793Z,23.79
2017-05-20T02:25:04.707Z,23.76
2017-05-20T02:26:14.910Z,23.79
2017-05-20T02:27:24.816Z,23.87
2017-05-20T02:28:34.114Z,23.85
2017-05-20T02:29:43.719Z,23.79
2017-05-20T02:30:54.024Z,23.78
2017-05-20T02:32:04.234Z,23.76
2017-05-20T02:33:13.840Z,23.85
2017-05-20T02:34:23.434Z,23.85
2017-05-20T02:35:33.365Z,23.78
2017-05-20T02:36:43.316Z,23.8
2017-05-20T02:37:53.251Z,23.84
2017-05-20T02:39:03.172Z,23.73
2017-05-20T02:40:13.071Z,23.85
2017-05-20T02:41:22.675Z,23.79
2017-05-20T02:42:32.277Z,23.83
2017-05-20T02:43:41.620Z,23.78
2017-05-20T02:44:51.229Z,23.79
2017-05-20T02:46:01.144Z,23.76
2017-05-20T02:47:11.057Z,23.75
2017-05-20T02:48:20.675Z,23.72
2017-05-20T02:49:30.332Z,23.79
2017-05-20T02:50:40.289Z,23.79
2017-05-20T02:51:50.195Z,23.72
2017-05-20T02:52:59.494Z,23.8
2017-05-20T02:54:09.430Z,23.72
2017-05-20T02:55:19.661Z,23.7
2017-05-20T02:56:29.570Z,23.76
2017-05-20T02:57:39.163Z,23.7
2017-05-20T02:58:49.088Z,23.84
2017-05-20T02:59:58.699Z,23.78
2017-05-20T03:01:08.329Z,23.76
2017-05-20T03:02:18.257Z,23.8
2017-05-20T03:03:27.858Z,23.87
2017-05-20T03:04:37.458Z,23.78
2017-05-20T03:05:47.374Z,23.73
2017-05-20T03:06:57.277Z,23.76
2017-05-20T03:08:07.493Z,23.73
2017-05-20T03:09:17.409Z,23.83
2017-05-20T03:10:27.321Z,23.73
2017-05-20T03:11:36.917Z,23.75
2017-05-20T03:12:46.221Z,23.75
2017-05-20T03:13:55.533Z,23.84
2017-05-20T03:15:04.833Z,23.8
2017-05-20T03:16:14.758Z,23.69
2017-05-20T03:17:24.667Z,23.69
2017-05-20T03:18:34.259Z,23.68
2017-05-20T03:19:43.548Z,23.68
2017-05-20T03:20:53.455Z,23.7
2017-05-20T03:22:03.374Z,23.72
2017-05-20T03:23:13.294Z,23.65
2017-05-20T03:24:22.892Z,23.72
2017-05-20T03:25:33.093Z,23.68
2017-05-20T03:26:43.302Z,23.78
2017-05-20T03:27:53.525Z,23.72
2017-05-20T03:29:03.753Z,23.65
2017-05-20T03:30:13.826Z,23.66
2017-05-20T03:31:24.042Z,23.7
2017-05-20T03:32:33.958Z,23.6
2017-05-20T03:33:44.171Z,23.7
2017-05-20T03:34:53.790Z,23.65
2017-05-20T03:36:04.001Z,23.63
2017-05-20T03:37:13.599Z,23.72
2017-05-20T03:38:23.199Z,23.69
2017-05-20T03:39:33.115Z,23.73
2017-05-20T03:40:43.335Z,23.7
2017-05-20T03:41:53.248Z,23.79
2017-05-20T03:43:02.545Z,23.73
2017-05-20T03:44:12.759Z,23.76
2017-05-20T03:45:22.059Z,23.72
2017-05-20T03:46:32.265Z,23.6
2017-05-20T03:47:42.175Z,23.65
2017-05-20T03:48:52.146Z,23.72
2017-05-20T03:50:02.365Z,23.68
2017-05-20T03:51:11.962Z,23.7
2017-05-20T03:52:21.257Z,23.72
2017-05-20T03:53:31.468Z,23.73
2017-05-20T03:54:41.136Z,23.73
2017-05-20T03:55:50.439Z,23.68
2017-05-20T03:57:00.035Z,23.72
2017-05-20T03:58:09.929Z,23.79
2017-05-20T03:59:19.850Z,23.66
2017-05-20T04:00:29.771Z,23.79
2017-05-20T04:01:39.682Z,23.68
2017-05-20T04:02:49.959Z,23.76
2017-05-20T04:03:59.570Z,23.8
2017-05-20T04:05:09.517Z,23.83
2017-05-20T04:06:18.808Z,23.84
2017-05-20T04:07:28.411Z,23.84
2017-05-20T04:08:38.326Z,23.79
2017-05-20T04:09:48.242Z,23.79
2017-05-20T04:10:57.540Z,23.73
2017-05-20T04:12:07.756Z,23.79
2017-05-20T04:13:17.667Z,23.76
2017-05-20T04:14:27.278Z,23.83
2017-05-20T04:15:37.506Z,23.72
2017-05-20T04:16:47.774Z,23.78
2017-05-20T04:17:57.739Z,23.73
2017-05-20T04:19:07.659Z,23.79
2017-05-20T04:20:17.263Z,23.79
2017-05-20T04:21:26.868Z,23.85
2017-05-20T04:22:36.771Z,23.84
2017-05-20T04:23:46.714Z,23.73
2017-05-20T04:24:56.634Z,23.78
2017-05-20T04:26:06.545Z,23.79
2017-05-20T04:27:16.154Z,23.8
2017-05-20T04:28:26.363Z,23.78
2017-05-20T04:29:36.283Z,23.9
2017-05-20T04:30:46.184Z,23.9
2017-05-20T04:31:56.395Z,23.9
2017-05-20T04:33:06.331Z,23.84
2017-05-20T04:34:16.267Z,23.87
2017-05-20T04:35:25.600Z,23.87
2017-05-20T04:36:35.232Z,23.88
2017-05-20T04:37:45.145Z,23.85
2017-05-20T04:38:54.767Z,23.93
2017-05-20T04:40:04.991Z,23.9
2017-05-20T04:41:15.215Z,23.93
2017-05-20T04:42:25.126Z,23.9
2017-05-20T04:43:35.368Z,23.91
2017-05-20T04:44:44.072Z,23.85
2017-05-20T04:45:54.005Z,23.93
2017-05-20T04:47:03.944Z,23.93
2017-05-20T04:48:13.870Z,23.88
2017-05-20T04:49:23.784Z,23.9
2017-05-20T04:50:33.695Z,23.9
2017-05-20T04:51:43.938Z,23.91
2017-05-20T04:52:53.539Z,23.9
2017-05-20T04:54:03.171Z,23.94
2017-05-20T04:55:12.826Z,23.95
2017-05-20T04:56:23.084Z,23.94
2017-05-20T04:57:32.555Z,23.9
2017-05-20T04:58:42.176Z,23.94
2017-05-20T04:59:52.114Z,23.98
2017-05-20T05:01:01.727Z,24
2017-05-20T05:02:11.340Z,23.98
2017-05-20T05:03:20.342Z,24.06
2017-05-20T05:04:29.669Z,24.05
2017-05-20T05:05:39.580Z,24.05
2017-05-20T05:06:49.194Z,24.12
2017-05-20T05:07:58.813Z,24.03
2017-05-20T05:09:08.411Z,24.24
2017-05-20T05:10:18.342Z,24.31
2017-05-20T05:11:28.302Z,24.4
2017-05-20T05:12:38.356Z,24.67
2017-05-20T05:13:47.673Z,25.08
2017-05-20T05:14:57.589Z,25.47
2017-05-20T05:16:07.836Z,25.91
2017-05-20T05:17:16.842Z,26.33
2017-05-20T05:18:26.783Z,26.65
2017-05-20T05:19:36.703Z,27.09
2017-05-20T05:20:46.963Z,27.36
2017-05-20T05:21:56.277Z,27.72
2017-05-20T05:23:05.886Z,27.97
2017-05-20T05:24:15.806Z,28.36
2017-05-20T05:25:25.749Z,28.55
2017-05-20T05:26:35.678Z,28.8
2017-05-20T05:27:45.630Z,28.98
2017-05-20T05:28:55.273Z,29.23
2017-05-20T05:30:05.189Z,29.43
2017-05-20T05:31:15.436Z,29.53
2017-05-20T05:32:25.650Z,29.58
2017-05-20T05:33:35.588Z,29.73
2017-05-20T05:34:45.221Z,29.8
2017-05-20T05:35:54.909Z,29.87
2017-05-20T05:37:05.120Z,29.92
2017-05-20T05:38:14.726Z,30
2017-05-20T05:39:24.629Z,30.15
2017-05-20T05:40:34.264Z,30.17
2017-05-20T05:41:44.188Z,30.26
2017-05-20T05:42:53.802Z,30.47
2017-05-20T05:44:04.039Z,30.64
2017-05-20T05:45:14.259Z,30.75
2017-05-20T05:46:23.882Z,30.64
2017-05-20T05:47:33.507Z,30.38
2017-05-20T05:48:43.447Z,30.15
2017-05-20T05:49:53.671Z,29.94
2017-05-20T05:51:02.652Z,29.71
2017-05-20T05:52:12.573Z,29.68
2017-05-20T05:53:22.478Z,29.61
2017-05-20T05:54:32.423Z,29.79
2017-05-20T05:55:42.659Z,30.1
2017-05-20T05:56:52.265Z,30.34
2017-05-20T05:58:02.169Z,30.61
2017-05-20T05:59:11.777Z,30.95
2017-05-20T06:00:21.707Z,31.17
2017-05-20T06:01:31.932Z,31.41
2017-05-20T06:02:41.552Z,31.68
2017-05-20T06:03:51.542Z,32.01
2017-05-20T06:05:01.813Z,32.22
2017-05-20T06:06:11.744Z,32.52
2017-05-20T06:07:21.971Z,32.81
2017-05-20T06:08:31.265Z,32.93
2017-05-20T06:09:40.621Z,33.12
2017-05-20T06:10:50.544Z,33
2017-05-20T06:12:00.456Z,32.74
2017-05-20T06:13:10.091Z,32.44
2017-05-20T06:14:20.334Z,31.96
2017-05-20T06:15:30.651Z,31.66
2017-05-20T06:16:40.853Z,31.41
2017-05-20T06:17:51.095Z,31.21
2017-05-20T06:19:01.007Z,30.97
2017-05-20T06:20:10.032Z,30.72
2017-05-20T06:21:20.088Z,30.51
2017-05-20T06:22:30.017Z,30.43
2017-05-20T06:23:39.981Z,30.26
2017-05-20T06:24:50.208Z,30.1
2017-05-20T06:25:58.963Z,29.94
2017-05-20T06:27:08.881Z,29.79
2017-05-20T06:28:18.224Z,29.61
2017-05-20T06:29:28.540Z,29.49
2017-05-20T06:30:38.786Z,29.3
2017-05-20T06:31:48.779Z,29.16
2017-05-20T06:32:58.225Z,28.95
2017-05-20T06:34:08.714Z,28.88
2017-05-20T06:35:19.765Z,28.64
2017-05-20T06:36:29.688Z,28.67
2017-05-20T06:37:39.971Z,28.52
2017-05-20T06:38:49.278Z,28.46
2017-05-20T06:39:58.599Z,28.39
2017-05-20T06:41:08.590Z,28.29
2017-05-20T06:42:18.812Z,28.18
2017-05-20T06:43:28.757Z,28.19
2017-05-20T06:44:38.681Z,28.15
2017-05-20T06:45:48.712Z,28.11
2017-05-20T06:46:58.622Z,28.14
2017-05-20T06:48:08.237Z,28.04
2017-05-20T06:49:18.158Z,28.06
2017-05-20T06:50:28.457Z,27.99
2017-05-20T06:51:38.074Z,27.97
2017-05-20T06:52:47.690Z,27.72
2017-05-20T06:53:57.593Z,27.67
2017-05-20T06:55:07.507Z,27.47
2017-05-20T06:56:16.505Z,27.39
2017-05-20T06:57:26.124Z,27.27
2017-05-20T06:58:36.046Z,27.25
2017-05-20T06:59:45.981Z,27.13
2017-05-20T07:00:55.583Z,27.04
2017-05-20T07:02:05.566Z,26.94
2017-05-20T07:03:15.475Z,26.95
2017-05-20T07:04:25.383Z,26.87
2017-05-20T07:05:35.319Z,26.85
2017-05-20T07:06:44.668Z,26.76
2017-05-20T07:07:54.575Z,26.76
2017-05-20T07:09:04.490Z,26.63
2017-05-20T07:10:14.387Z,26.55
2017-05-20T07:11:23.989Z,26.54
2017-05-20T07:12:33.905Z,26.52
2017-05-20T07:13:43.832Z,26.4
2017-05-20T07:14:53.797Z,26.44
2017-05-20T07:16:03.727Z,26.44
2017-05-20T07:17:13.048Z,26.55
2017-05-20T07:18:22.979Z,26.73
2017-05-20T07:19:32.902Z,27.22
2017-05-20T07:20:42.507Z,27.88
2017-05-20T07:21:51.503Z,28.62
2017-05-20T07:23:01.096Z,29.43
2017-05-20T07:24:10.699Z,30
2017-05-20T07:25:20.628Z,30.75
2017-05-20T07:26:30.880Z,31.21
2017-05-20T07:27:41.165Z,31.68
2017-05-20T07:28:50.799Z,32.11
2017-05-20T07:30:00.722Z,32.59
2017-05-20T07:31:10.653Z,32.93
2017-05-20T07:32:20.633Z,33.35
2017-05-20T07:33:30.844Z,33.56
2017-05-20T07:34:40.475Z,33.81
2017-05-20T07:35:50.396Z,33.97
2017-05-20T07:37:00.661Z,34.3
2017-05-20T07:38:10.906Z,34.42
2017-05-20T07:39:20.822Z,34.65
2017-05-20T07:40:30.436Z,34.77
2017-05-20T07:41:40.370Z,34.96
2017-05-20T07:42:50.311Z,35.1
2017-05-20T07:44:00.545Z,35.29
2017-05-20T07:45:10.794Z,35.37
2017-05-20T07:46:20.729Z,35.44
2017-05-20T07:47:31.040Z,35.53
2017-05-20T07:48:41.279Z,35.58
2017-05-20T07:49:50.290Z,35.72
2017-05-20T07:51:00.211Z,35.78
2017-05-20T07:52:09.890Z,35.65
2017-05-20T07:53:19.859Z,35.75
2017-05-20T07:54:29.522Z,35.66
2017-05-20T07:55:39.142Z,35.7
2017-05-20T07:56:49.363Z,35.63
2017-05-20T07:57:58.682Z,35.59
2017-05-20T07:59:08.653Z,35.68
2017-05-20T08:00:18.580Z,35.55
2017-05-20T08:01:28.533Z,35.63
2017-05-20T08:02:38.184Z,35.66
2017-05-20T08:03:47.844Z,35.68
2017-05-20T08:04:58.095Z,35.71
2017-05-20T08:06:07.724Z,35.7
2017-05-20T08:07:17.647Z,35.75
2017-05-20T08:08:27.573Z,35.84
2017-05-20T08:09:37.793Z,35.89
2017-05-20T08:10:47.716Z,35.94
2017-05-20T08:11:57.335Z,35.94
2017-05-20T08:13:07.261Z,35.84
2017-05-20T08:14:17.180Z,35.68
2017-05-20T08:15:27.090Z,35.5
2017-05-20T08:16:37.318Z,35.16
2017-05-20T08:17:46.993Z,34.82
2017-05-20T08:18:56.909Z,34.54
2017-05-20T08:20:07.129Z,34.7
2017-05-20T08:21:17.355Z,34.54
2017-05-20T08:22:26.659Z,34.39
2017-05-20T08:23:36.886Z,34.17
2017-05-20T08:24:46.500Z,33.86
2017-05-20T08:25:55.804Z,33.45
2017-05-20T08:27:05.423Z,33.32
2017-05-20T08:28:15.671Z,32.99
2017-05-20T08:29:25.903Z,32.72
2017-05-20T08:30:36.140Z,32.69
2017-05-20T08:31:45.762Z,32.65
2017-05-20T08:32:55.987Z,32.29
2017-05-20T08:34:05.920Z,32.1
2017-05-20T08:35:15.856Z,31.93
2017-05-20T08:36:26.057Z,31.63
2017-05-20T08:37:37.760Z,31.58
2017-05-20T08:38:46.948Z,31.43
2017-05-20T08:39:56.549Z,31.26
2017-05-20T08:41:06.487Z,31.14
2017-05-20T08:42:16.102Z,31.2
2017-05-20T08:43:26.038Z,31.5
2017-05-20T08:44:36.258Z,31.53
2017-05-20T08:45:45.969Z,31.39
2017-05-20T08:46:55.583Z,31.14
2017-05-20T08:48:05.795Z,30.89
2017-05-20T08:49:15.733Z,30.69
2017-05-20T08:50:25.715Z,30.39
2017-05-20T08:51:35.349Z,30.11
2017-05-20T08:52:45.578Z,29.98
2017-05-20T08:53:55.501Z,29.7
2017-05-20T08:55:05.419Z,29.57
2017-05-20T08:56:15.329Z,29.36
2017-05-20T08:57:24.679Z,29.21
2017-05-20T08:58:34.286Z,29
2017-05-20T08:59:44.211Z,28.89
2017-05-20T09:00:54.128Z,28.74
2017-05-20T09:02:04.365Z,28.62
2017-05-20T09:03:14.574Z,28.58
2017-05-20T09:04:24.494Z,28.41
2017-05-20T09:05:34.411Z,28.39
2017-05-20T09:06:43.449Z,28.22
2017-05-20T09:07:53.114Z,28.09
2017-05-20T09:09:03.051Z,28.12
2017-05-20T09:10:12.666Z,28
2017-05-20T09:11:22.272Z,27.87
2017-05-20T09:12:32.195Z,27.85
2017-05-20T09:13:42.453Z,27.66
2017-05-20T09:14:52.668Z,27.43
2017-05-20T09:16:02.588Z,27.28
2017-05-20T09:17:12.194Z,26.85
2017-05-20T09:18:21.504Z,26.65
2017-05-20T09:19:31.106Z,26.48
2017-05-20T09:20:41.360Z,26.43
2017-05-20T09:21:50.985Z,26.36
2017-05-20T09:23:01.230Z,26.4
2017-05-20T09:24:11.151Z,26.33
2017-05-20T09:26:29.135Z,26.36
2017-05-20T09:27:39.068Z,26.33
2017-05-20T09:28:48.684Z,26.33
2017-05-20T09:29:58.295Z,26.37
2017-05-20T09:31:08.202Z,26.33
2017-05-20T09:32:18.124Z,26.28
2017-05-20T09:33:28.032Z,26.32
2017-05-20T09:34:37.658Z,26.33
2017-05-20T09:35:47.266Z,26.3
2017-05-20T09:36:56.555Z,26.26
2017-05-20T09:38:06.474Z,26.26
2017-05-20T09:39:16.392Z,26.35
2017-05-20T09:40:26.016Z,26.33
2017-05-20T09:41:35.667Z,26.25
2017-05-20T09:42:45.273Z,26.28
2017-05-20T09:43:55.503Z,26.28
2017-05-20T09:45:04.806Z,26.26
2017-05-20T09:46:14.724Z,26.3
2017-05-20T09:47:24.955Z,26.26
2017-05-20T09:48:34.558Z,26.3
2017-05-20T09:49:44.482Z,26.26
2017-05-20T09:50:54.415Z,26.25
2017-05-20T09:52:03.723Z,26.29
2017-05-20T09:53:13.372Z,26.26
2017-05-20T09:54:22.671Z,26.25
2017-05-20T09:55:32.589Z,26.18
2017-05-20T09:56:42.815Z,26.25
2017-05-20T09:57:52.437Z,26.21
2017-05-20T09:59:02.343Z,26.26
2017-05-20T10:00:11.951Z,26.21
2017-05-20T10:01:21.605Z,26.09
2017-05-20T10:02:31.232Z,26.17
2017-05-20T10:03:41.140Z,26.17
2017-05-20T10:04:51.061Z,26.09
2017-05-20T10:06:00.972Z,26.07
2017-05-20T10:07:10.927Z,26.1
2017-05-20T10:08:21.149Z,26.06
2017-05-20T10:09:31.067Z,26.1
2017-05-20T10:10:40.372Z,26.07
2017-05-20T10:11:49.683Z,26.1
2017-05-20T10:12:59.603Z,26.06
2017-05-20T10:14:09.218Z,25.99
2017-05-20T10:15:18.232Z,26.09
2017-05-20T10:16:28.160Z,26.05
2017-05-20T10:17:38.448Z,26.02
2017-05-20T10:18:48.061Z,25.99
2017-05-20T10:19:57.983Z,26.01
2017-05-20T10:21:07.897Z,25.95
2017-05-20T10:22:17.837Z,25.97
2017-05-20T10:23:27.739Z,25.79
2017-05-20T10:24:37.956Z,25.51
2017-05-20T10:25:47.246Z,25.36
2017-05-20T10:26:55.940Z,24.95
2017-05-20T10:28:05.869Z,24.84
2017-05-20T10:29:15.189Z,24.58
2017-05-20T10:30:24.869Z,24.4
2017-05-20T10:31:35.100Z,24.15
2017-05-20T10:32:45.402Z,23.97
2017-05-20T10:33:54.711Z,23.87
2017-05-20T10:35:04.010Z,23.76
2017-05-20T10:36:13.928Z,23.54
2017-05-20T10:37:23.838Z,23.43
2017-05-20T10:38:33.435Z,23.25
2017-05-20T10:39:43.359Z,23.19
2017-05-20T10:40:52.649Z,23.04
2017-05-20T10:42:02.264Z,22.97
2017-05-20T10:43:11.864Z,22.92
2017-05-20T10:44:21.775Z,22.85
2017-05-20T10:45:32.005Z,22.79
2017-05-20T10:46:41.304Z,22.68
2017-05-20T10:47:51.283Z,22.68
2017-05-20T10:49:01.495Z,22.68
2017-05-20T10:50:11.106Z,22.55
2017-05-20T10:51:20.708Z,22.49
2017-05-20T10:52:30.341Z,22.62
2017-05-20T10:53:40.251Z,22.49
2017-05-20T10:54:50.494Z,22.46
2017-05-20T10:56:00.721Z,22.3
2017-05-20T10:57:10.326Z,22.3
2017-05-20T10:58:19.934Z,22.15
2017-05-20T10:59:29.580Z,22.21
2017-05-20T11:00:39.503Z,22.17
2017-05-20T11:01:49.437Z,22.2
2017-05-20T11:02:59.035Z,22.22
2017-05-20T11:04:08.700Z,22.2
2017-05-20T11:05:18.607Z,22.25
2017-05-20T11:06:28.514Z,22.24
2017-05-20T11:07:38.112Z,22.24
2017-05-20T11:08:47.718Z,22.3
2017-05-20T11:09:57.631Z,22.37
2017-05-20T11:11:07.537Z,22.3
2017-05-20T11:12:17.165Z,22.27
2017-05-20T11:13:26.763Z,22.22
2017-05-20T11:14:36.973Z,22.24
2017-05-20T11:15:46.586Z,22.21
2017-05-20T11:16:55.881Z,22.25
2017-05-20T11:18:05.842Z,22.21
2017-05-20T11:19:16.048Z,22.2
2017-05-20T11:20:26.278Z,22.18
2017-05-20T11:21:36.181Z,22.21
2017-05-20T11:22:45.797Z,22.15
2017-05-20T11:23:55.720Z,22.18
2017-05-20T11:25:05.039Z,22.15
2017-05-20T11:26:15.246Z,22.06
2017-05-20T11:27:24.558Z,21.99
2017-05-20T11:28:33.844Z,21.96
2017-05-20T11:29:43.440Z,22
2017-05-20T11:30:52.750Z,21.92
2017-05-20T11:32:02.673Z,22
2017-05-20T11:33:12.925Z,22
2017-05-20T11:34:22.553Z,22
2017-05-20T11:35:32.162Z,21.82
2017-05-20T11:36:42.382Z,21.92
2017-05-20T11:37:52.318Z,21.88
2017-05-20T11:39:01.629Z,21.91
2017-05-20T11:40:11.533Z,21.88
2017-05-20T11:41:21.134Z,21.86
2017-05-20T11:42:31.354Z,21.92
2017-05-20T11:43:41.574Z,21.96
2017-05-20T11:44:51.191Z,21.9
2017-05-20T11:46:00.809Z,21.84
2017-05-20T11:47:10.162Z,21.86
2017-05-20T11:48:20.079Z,21.86
2017-05-20T11:49:30.013Z,21.8
2017-05-20T11:50:39.308Z,21.79
2017-05-20T11:51:48.930Z,21.75
2017-05-20T11:52:58.836Z,21.77
2017-05-20T11:54:09.081Z,21.69
2017-05-20T11:55:18.986Z,21.74
2017-05-20T11:56:28.598Z,21.71
2017-05-20T11:57:39.088Z,21.72
2017-05-20T11:58:50.632Z,21.72
2017-05-20T12:00:01.724Z,21.74
2017-05-20T12:01:11.686Z,21.71
2017-05-20T12:02:21.107Z,21.84
2017-05-20T12:03:32.055Z,21.83
2017-05-20T12:04:41.692Z,21.75
2017-05-20T12:05:51.666Z,21.88
2017-05-20T12:07:01.300Z,21.82
2017-05-20T12:08:11.522Z,21.9
2017-05-20T12:09:21.740Z,21.74
2017-05-20T12:10:31.956Z,21.62
2017-05-20T12:11:42.171Z,21.67
2017-05-20T12:12:51.502Z,21.64
2017-05-20T12:14:00.870Z,21.65
2017-05-20T12:15:10.180Z,21.56
2017-05-20T12:16:20.103Z,21.52
2017-05-20T12:17:30.033Z,21.49
2017-05-20T12:18:39.676Z,21.56
2017-05-20T12:19:49.622Z,21.59
2017-05-20T12:20:59.244Z,21.61
2017-05-20T12:22:08.854Z,21.75
2017-05-20T12:23:19.086Z,21.75
2017-05-20T12:24:28.391Z,21.88
2017-05-20T12:25:38.027Z,21.9
2017-05-20T12:26:48.275Z,21.98
2017-05-20T12:27:58.207Z,22.07
2017-05-20T12:29:08.449Z,22.03
2017-05-20T12:30:18.084Z,22.22
2017-05-20T12:31:28.301Z,22.24
2017-05-20T12:32:38.558Z,22.25
2017-05-20T12:33:48.485Z,22.3
2017-05-20T12:34:58.461Z,22.35
2017-05-20T12:36:08.396Z,22.37
2017-05-20T12:37:17.700Z,22.46
2017-05-20T12:38:27.612Z,22.42
2017-05-20T12:39:36.916Z,22.55
2017-05-20T12:40:46.219Z,22.55
2017-05-20T12:41:55.530Z,22.51
2017-05-20T12:43:05.458Z,22.68
2017-05-20T12:44:15.701Z,22.67
2017-05-20T12:45:25.624Z,22.64
2017-05-20T12:46:35.896Z,22.75
2017-05-20T12:47:45.541Z,22.75
2017-05-20T12:48:55.162Z,22.79
2017-05-20T12:50:04.775Z,22.9
2017-05-20T12:51:14.990Z,22.92
2017-05-20T12:52:25.266Z,22.95
2017-05-20T12:53:34.863Z,23.04
2017-05-20T12:54:44.785Z,23.02
2017-05-20T12:55:54.076Z,23.15
2017-05-20T12:57:04.292Z,23.09
2017-05-20T12:58:13.905Z,23.13
2017-05-20T12:59:23.818Z,23.2
2017-05-20T13:00:33.732Z,23.15
2017-05-20T13:01:43.642Z,23.23
2017-05-20T13:02:53.277Z,23.4
2017-05-20T13:04:02.021Z,23.43
2017-05-20T13:05:12.264Z,23.36
2017-05-20T13:06:22.173Z,23.43
2017-05-20T13:07:32.398Z,23.47
2017-05-20T13:08:42.631Z,23.51
2017-05-20T13:09:52.859Z,23.54
2017-05-20T13:11:02.473Z,23.54
2017-05-20T13:12:12.094Z,23.54
2017-05-20T13:13:21.698Z,23.54
2017-05-20T13:14:31.299Z,23.58
2017-05-20T13:15:40.313Z,23.57
2017-05-20T13:16:50.534Z,23.57
2017-05-20T13:18:00.135Z,23.57
2017-05-20T13:19:09.465Z,23.58
2017-05-20T13:20:19.403Z,23.63
2017-05-20T13:21:29.625Z,23.65
2017-05-20T13:22:39.248Z,23.63
2017-05-20T13:23:48.867Z,23.68
2017-05-20T13:24:58.181Z,23.75
2017-05-20T13:26:08.098Z,23.73
2017-05-20T13:27:17.713Z,23.76
2017-05-20T13:28:27.627Z,23.72
2017-05-20T13:29:37.258Z,23.73
2017-05-20T13:30:47.174Z,23.72
2017-05-20T13:31:56.782Z,23.73
2017-05-20T13:33:06.384Z,23.83
2017-05-20T13:34:16.295Z,23.83
2017-05-20T13:35:25.911Z,23.73
2017-05-20T13:36:36.151Z,23.8
2017-05-20T13:37:46.066Z,23.79
2017-05-20T13:38:55.677Z,23.69
2017-05-20T13:40:04.972Z,23.75
2017-05-20T13:41:15.674Z,23.69
2017-05-20T13:42:24.663Z,23.78
2017-05-20T13:43:34.294Z,23.79
2017-05-20T13:44:44.516Z,23.78
2017-05-20T13:45:54.739Z,23.78
2017-05-20T13:47:04.350Z,23.75
2017-05-20T13:48:13.972Z,23.73
2017-05-20T13:49:24.248Z,23.87
2017-05-20T13:50:33.556Z,23.76
2017-05-20T13:51:43.163Z,23.83
2017-05-20T13:52:53.093Z,23.83
2017-05-20T13:54:03.038Z,23.87
2017-05-20T13:55:12.064Z,23.87
2017-05-20T13:56:21.985Z,23.85
2017-05-20T13:57:31.897Z,23.88
2017-05-20T13:58:41.216Z,23.9
2017-05-20T13:59:50.860Z,23.78
2017-05-20T14:01:00.761Z,23.97
2017-05-20T14:02:11.009Z,23.83
2017-05-20T14:03:21.228Z,23.79
2017-05-20T14:04:31.142Z,23.88
2017-05-20T14:05:40.752Z,23.78
2017-05-20T14:06:50.688Z,23.8
2017-05-20T14:08:00.599Z,23.76
2017-05-20T14:09:10.846Z,23.78
2017-05-20T14:10:20.459Z,23.75
2017-05-20T14:11:30.387Z,23.7
2017-05-20T14:12:40.606Z,23.73
2017-05-20T14:13:50.838Z,23.63
2017-05-20T14:15:00.758Z,23.63
2017-05-20T14:16:11.015Z,23.7
2017-05-20T14:17:20.948Z,23.58
2017-05-20T14:18:30.890Z,23.58
2017-05-20T14:19:40.495Z,23.58
2017-05-20T14:20:50.410Z,23.55
2017-05-20T14:21:59.711Z,23.48
2017-05-20T14:23:09.623Z,23.54
2017-05-20T14:24:19.613Z,23.51
2017-05-20T14:25:29.517Z,23.54
2017-05-20T14:26:38.873Z,23.5
2017-05-20T14:27:48.782Z,23.48
2017-05-20T14:28:59.008Z,23.43
2017-05-20T14:30:08.616Z,23.46
2017-05-20T14:31:18.530Z,23.46
2017-05-20T14:32:28.175Z,23.42
2017-05-20T14:33:38.423Z,23.4
2017-05-20T14:34:48.046Z,23.48
2017-05-20T14:35:58.910Z,23.47
2017-05-20T14:37:08.636Z,23.35
2017-05-20T14:38:18.295Z,23.35
2017-05-20T14:39:28.305Z,23.35
2017-05-20T14:40:37.971Z,23.35
2017-05-20T14:41:47.954Z,23.35
2017-05-20T14:42:57.901Z,23.36
2017-05-20T14:44:08.146Z,23.39
2017-05-20T14:45:17.684Z,23.39
2017-05-20T14:46:27.360Z,23.33
2017-05-20T14:47:37.679Z,23.33
2017-05-20T14:48:47.644Z,23.25
2017-05-20T14:49:57.381Z,23.31
2017-05-20T14:51:07.411Z,23.19
2017-05-20T14:52:17.572Z,23.25
2017-05-20T14:53:28.520Z,23.15
2017-05-20T14:54:37.838Z,23.25
2017-05-20T14:55:47.467Z,23.23
2017-05-20T14:56:57.393Z,23.23
2017-05-20T14:58:07.666Z,23.25
2017-05-20T14:59:17.709Z,23.23
2017-05-20T15:00:27.909Z,23.15
2017-05-20T15:01:37.529Z,23.16
2017-05-20T15:02:46.925Z,23.15
2017-05-20T15:03:58.327Z,23.15
2017-05-20T15:05:08.440Z,23.15
2017-05-20T15:06:18.632Z,23.09